createdAt,value
2018-09-28T00:01:33.902Z,91.87
2018-09-28T00:04:02.346Z,93.00
2018-09-28T00:06:30.874Z,92.76
2018-09-28T00:08:59.352Z,92.48
2018-09-28T00:11:27.927Z,91.68
2018-09-28T00:13:56.438Z,92.17
2018-09-28T00:16:24.885Z,91.72
2018-09-28T00:18:53.283Z,92.69
2018-09-28T00:21:21.808Z,92.30
2018-09-28T00:23:50.283Z,92.17
2018-09-28T00:26:18.711Z,92.34
2018-09-28T00:28:47.189Z,92.43
2018-09-28T00:31:15.651Z,92.28
2018-09-28T00:33:44.263Z,91.66
2018-09-28T00:36:12.710Z,91.39
2018-09-28T00:38:41.144Z,91.23
2018-09-28T00:41:09.520Z,91.87
2018-09-28T00:43:37.939Z,91.33
2018-09-28T00:46:06.374Z,91.59
2018-09-28T00:48:34.755Z,92.50
2018-09-28T00:51:03.335Z,92.75
2018-09-28T00:53:31.779Z,92.23
2018-09-28T00:56:00.187Z,91.72
2018-09-28T00:58:28.643Z,91.37
2018-09-28T01:00:57.163Z,91.97
2018-09-28T01:03:25.666Z,92.52
2018-09-28T01:05:54.828Z,92.19
2018-09-28T01:08:23.407Z,92.70
2018-09-28T01:10:51.868Z,92.30
2018-09-28T01:13:20.348Z,91.97
2018-09-28T01:15:48.850Z,92.71
2018-09-28T01:18:17.295Z,92.43
2018-09-28T01:20:45.742Z,92.60
2018-09-28T01:23:14.215Z,93.21
2018-09-28T01:25:42.633Z,93.08
2018-09-28T01:28:11.075Z,93.18
2018-09-28T01:30:39.486Z,94.04
2018-09-28T01:33:07.917Z,93.10
2018-09-28T01:35:36.491Z,93.05
2018-09-28T01:38:04.980Z,93.15
2018-09-28T01:40:33.470Z,92.54
2018-09-28T01:43:01.924Z,92.86
2018-09-28T01:45:30.387Z,92.68
2018-09-28T01:47:58.782Z,93.36
2018-09-28T01:50:27.223Z,92.42
2018-09-28T01:52:56.083Z,92.18
2018-09-28T01:55:24.619Z,93.13
2018-09-28T01:57:53.159Z,93.15
2018-09-28T02:00:21.639Z,93.19
2018-09-28T02:02:50.134Z,92.37
2018-09-28T02:05:18.923Z,91.91
2018-09-28T02:07:47.415Z,91.93
2018-09-28T02:10:15.819Z,92.74
2018-09-28T02:12:44.336Z,92.80
2018-09-28T02:15:12.836Z,93.10
2018-09-28T02:17:41.278Z,93.94
2018-09-28T02:20:09.727Z,93.72
2018-09-28T02:22:38.198Z,93.66
2018-09-28T02:25:06.706Z,94.14
2018-09-28T02:27:35.211Z,92.94
2018-09-28T02:30:03.699Z,93.04
2018-09-28T02:32:32.162Z,93.24
2018-09-28T02:35:00.631Z,92.57
2018-09-28T02:37:29.106Z,92.43
2018-09-28T02:39:57.567Z,93.12
2018-09-28T02:42:26.002Z,94.18
2018-09-28T02:44:54.531Z,94.19
2018-09-28T02:47:23.019Z,93.41
2018-09-28T02:49:51.563Z,93.53
2018-09-28T02:52:19.958Z,93.39
2018-09-28T02:54:48.482Z,92.76
2018-09-28T02:57:17.016Z,92.89
2018-09-28T02:59:45.486Z,92.23
2018-09-28T03:02:13.947Z,92.06
2018-09-28T03:04:42.367Z,92.72
2018-09-28T03:07:10.871Z,93.02
2018-09-28T03:09:39.263Z,93.29
2018-09-28T03:12:08.030Z,92.93
2018-09-28T03:14:36.435Z,94.07
2018-09-28T03:17:04.931Z,93.75
2018-09-28T03:19:33.450Z,92.89
2018-09-28T03:22:01.962Z,93.75
2018-09-28T03:24:30.462Z,93.27
2018-09-28T03:26:58.943Z,93.24
2018-09-28T03:29:27.416Z,93.45
2018-09-28T03:31:55.838Z,93.25
2018-09-28T03:34:24.302Z,92.85
2018-09-28T03:36:52.715Z,93.42
2018-09-28T03:39:21.115Z,93.31
2018-09-28T03:41:49.527Z,92.83
2018-09-28T03:44:17.971Z,93.65
2018-09-28T03:46:46.467Z,93.32
2018-09-28T03:49:14.915Z,93.57
2018-09-28T03:51:43.331Z,92.78
2018-09-28T03:54:11.727Z,92.96
2018-09-28T03:56:40.250Z,93.84
2018-09-28T03:59:08.824Z,93.81
2018-09-28T04:01:37.247Z,93.14
2018-09-28T04:04:05.755Z,92.97
2018-09-28T04:06:34.214Z,92.64
2018-09-28T04:09:02.727Z,92.96
2018-09-28T04:11:31.211Z,92.02
2018-09-28T04:13:59.686Z,91.27
2018-09-28T04:16:28.114Z,91.83
2018-09-28T04:18:56.619Z,92.26
2018-09-28T04:21:25.252Z,91.19
2018-09-28T04:23:53.759Z,92.48
2018-09-28T04:26:23.041Z,92.45
2018-09-28T04:28:51.461Z,92.09
2018-09-28T04:31:20.215Z,92.37
2018-09-28T04:33:48.737Z,92.17
2018-09-28T04:36:17.251Z,92.33
2018-09-28T04:38:45.763Z,92.66
2018-09-28T04:41:14.315Z,92.57
2018-09-28T04:43:42.830Z,93.05
2018-09-28T04:46:11.582Z,93.28
2018-09-28T04:48:40.301Z,93.14
2018-09-28T04:51:08.882Z,92.95
2018-09-28T04:53:37.310Z,92.45
2018-09-28T04:56:05.986Z,93.34
2018-09-28T04:58:34.506Z,93.17
2018-09-28T05:01:02.991Z,93.57
2018-09-28T05:03:31.520Z,94.17
2018-09-28T05:05:59.930Z,93.43
2018-09-28T05:08:28.398Z,93.20
2018-09-28T05:10:56.939Z,92.21
2018-09-28T05:13:25.387Z,92.36
2018-09-28T05:15:53.843Z,92.33
2018-09-28T05:18:22.627Z,93.40
2018-09-28T05:20:51.067Z,92.97
2018-09-28T05:23:19.571Z,93.07
2018-09-28T05:25:48.203Z,92.34
2018-09-28T05:28:16.627Z,92.34
2018-09-28T05:30:45.484Z,92.47
2018-09-28T05:33:13.899Z,92.17
2018-09-28T05:35:42.639Z,92.22
2018-09-28T05:38:11.590Z,92.29
2018-09-28T05:40:40.598Z,91.81
2018-09-28T05:43:09.363Z,92.74
2018-09-28T05:45:37.842Z,92.43
2018-09-28T05:48:05.871Z,92.50
2018-09-28T05:50:34.304Z,92.31
2018-09-28T05:53:02.820Z,92.61
2018-09-28T05:55:31.563Z,93.18
2018-09-28T05:58:05.301Z,93.47
2018-09-28T06:00:39.086Z,93.35
2018-09-28T06:03:14.419Z,93.96
2018-09-28T06:05:44.351Z,94.94
2018-09-28T06:08:13.570Z,95.50
2018-09-28T06:10:42.150Z,95.83
2018-09-28T06:13:10.706Z,96.97
2018-09-28T06:15:39.270Z,97.21
2018-09-28T06:18:07.699Z,97.22
2018-09-28T06:20:36.372Z,96.50
2018-09-28T06:23:05.351Z,95.60
2018-09-28T06:25:33.982Z,94.68
2018-09-28T06:28:02.780Z,95.00
2018-09-28T06:30:31.291Z,95.35
2018-09-28T06:32:59.813Z,94.28
2018-09-28T06:35:28.474Z,94.29
2018-09-28T06:37:56.922Z,93.22
2018-09-28T06:40:25.331Z,93.86
2018-09-28T06:42:53.938Z,93.89
2018-09-28T06:45:22.631Z,93.47
2018-09-28T06:47:51.082Z,93.47
2018-09-28T06:50:19.571Z,93.12
2018-09-28T06:52:48.055Z,93.36
2018-09-28T06:55:16.571Z,93.73
2018-09-28T06:57:45.054Z,94.31
2018-09-28T07:00:13.768Z,93.22
2018-09-28T07:02:42.230Z,94.06
2018-09-28T07:05:11.051Z,93.37
2018-09-28T07:07:39.467Z,93.76
2018-09-28T07:10:08.359Z,94.25
2018-09-28T07:12:36.995Z,94.60
2018-09-28T07:15:06.191Z,93.19
2018-09-28T07:17:34.600Z,93.08
2018-09-28T07:20:03.321Z,93.31
2018-09-28T07:22:31.739Z,92.87
2018-09-28T07:25:00.200Z,93.38
2018-09-28T07:27:28.610Z,92.64
2018-09-28T07:29:57.222Z,91.72
2018-09-28T07:32:25.627Z,92.17
2018-09-28T07:34:54.382Z,88.10
2018-09-28T07:37:22.860Z,89.94
2018-09-28T07:39:51.243Z,88.57
2018-09-28T07:42:19.958Z,87.94
2018-09-28T07:44:48.323Z,88.81
2018-09-28T07:47:16.727Z,88.65
2018-09-28T07:49:45.177Z,88.75
2018-09-28T07:52:13.651Z,88.73
2018-09-28T07:54:42.090Z,88.97
2018-09-28T07:57:10.543Z,89.20
2018-09-28T07:59:39.044Z,88.09
2018-09-28T08:02:08.302Z,88.04
2018-09-28T08:04:36.850Z,86.54
2018-09-28T08:07:05.315Z,86.46
2018-09-28T08:09:33.829Z,85.43
2018-09-28T08:12:02.379Z,85.06
2018-09-28T08:14:30.893Z,84.57
2018-09-28T08:16:59.298Z,83.36
2018-09-28T08:19:27.931Z,82.97
2018-09-28T08:21:56.398Z,81.04
2018-09-28T08:24:24.810Z,79.58
2018-09-28T08:26:53.383Z,78.14
2018-09-28T08:29:21.894Z,78.47
2018-09-28T08:31:50.311Z,78.89
2018-09-28T08:34:18.887Z,79.26
2018-09-28T08:36:47.340Z,76.69
2018-09-28T08:39:15.851Z,76.15
2018-09-28T08:41:44.665Z,75.81
2018-09-28T08:44:13.155Z,76.10
2018-09-28T08:46:41.543Z,75.84
2018-09-28T08:49:10.372Z,75.49
2018-09-28T08:51:38.815Z,75.19
2018-09-28T08:54:07.468Z,74.30
2018-09-28T08:56:36.087Z,73.63
2018-09-28T08:59:04.642Z,71.76
2018-09-28T09:01:33.235Z,72.73
2018-09-28T09:04:02.284Z,71.09
2018-09-28T09:06:30.850Z,71.13
2018-09-28T09:08:59.303Z,69.83
2018-09-28T09:11:28.060Z,69.18
2018-09-28T09:13:56.486Z,69.30
2018-09-28T09:16:25.352Z,67.49
2018-09-28T09:18:53.855Z,66.82
2018-09-28T09:21:22.308Z,65.31
2018-09-28T09:23:50.834Z,64.37
2018-09-28T09:26:19.313Z,62.81
2018-09-28T09:28:47.755Z,63.15
2018-09-28T09:31:16.195Z,62.20
2018-09-28T09:33:45.071Z,62.60
2018-09-28T09:36:13.579Z,61.49
2018-09-28T09:38:42.127Z,61.35
2018-09-28T09:41:10.967Z,61.36
2018-09-28T09:43:39.461Z,59.63
2018-09-28T09:46:07.943Z,59.50
2018-09-28T09:48:36.659Z,59.92
2018-09-28T09:51:05.166Z,58.39
2018-09-28T09:53:33.667Z,58.41
2018-09-28T09:56:02.154Z,58.60
2018-09-28T09:58:30.627Z,58.87
2018-09-28T10:01:06.335Z,58.63
2018-09-28T10:03:40.498Z,59.30
2018-09-28T10:06:10.390Z,58.34
2018-09-28T10:08:38.959Z,58.99
2018-09-28T10:11:07.594Z,58.24
2018-09-28T10:13:36.201Z,57.54
2018-09-28T10:16:04.854Z,57.33
2018-09-28T10:18:33.356Z,58.02
2018-09-28T10:21:02.191Z,56.33
2018-09-28T10:23:30.657Z,56.89
2018-09-28T10:25:59.153Z,56.85
2018-09-28T10:28:27.895Z,56.98
2018-09-28T10:30:56.398Z,57.04
2018-09-28T10:33:24.877Z,57.41
2018-09-28T10:35:53.451Z,57.31
2018-09-28T10:38:21.916Z,56.97
2018-09-28T10:40:50.424Z,56.00
2018-09-28T10:43:19.246Z,56.41
2018-09-28T10:45:47.784Z,56.08
2018-09-28T10:48:16.294Z,54.86
2018-09-28T10:50:44.794Z,54.52
2018-09-28T10:53:13.394Z,54.21
2018-09-28T10:55:41.775Z,54.26
2018-09-28T10:58:10.270Z,54.36
2018-09-28T11:00:38.726Z,52.99
2018-09-28T11:03:07.251Z,53.11
2018-09-28T11:05:35.839Z,51.79
2018-09-28T11:08:04.322Z,52.39
2018-09-28T11:10:32.784Z,51.93
2018-09-28T11:13:01.465Z,51.70
2018-09-28T11:15:30.012Z,52.26
2018-09-28T11:17:58.455Z,51.89
2018-09-28T11:20:26.994Z,51.19
2018-09-28T11:22:55.468Z,51.85
2018-09-28T11:25:24.015Z,51.76
2018-09-28T11:27:53.730Z,51.64
2018-09-28T11:30:22.346Z,48.58
2018-09-28T11:32:51.015Z,49.83
2018-09-28T11:35:19.663Z,49.54
2018-09-28T11:37:48.282Z,47.63
2018-09-28T11:40:17.294Z,46.09
2018-09-28T11:42:48.527Z,47.68
2018-09-28T11:45:20.552Z,47.76
2018-09-28T11:47:50.126Z,48.77
2018-09-28T11:50:18.700Z,50.63
2018-09-28T11:52:47.502Z,48.90
2018-09-28T11:55:16.003Z,49.42
2018-09-28T11:57:44.611Z,49.78
2018-09-28T12:00:13.083Z,48.90
2018-09-28T12:02:41.607Z,47.82
2018-09-28T12:05:10.196Z,47.80
2018-09-28T12:07:38.594Z,46.45
2018-09-28T12:10:07.191Z,46.17
2018-09-28T12:12:36.389Z,44.66
2018-09-28T12:15:05.047Z,44.02
2018-09-28T12:17:33.572Z,37.23
2018-09-28T12:20:02.023Z,37.29
2018-09-28T12:22:30.492Z,37.85
2018-09-28T12:24:58.894Z,36.90
2018-09-28T12:27:27.510Z,38.38
2018-09-28T12:29:55.884Z,37.85
2018-09-28T12:32:24.424Z,37.03
2018-09-28T12:34:52.870Z,36.96
2018-09-28T12:37:21.523Z,35.75
2018-09-28T12:39:50.169Z,34.81
2018-09-28T12:42:19.741Z,33.13
2018-09-28T12:44:48.315Z,32.94
2018-09-28T12:47:16.759Z,32.59
2018-09-28T12:49:45.282Z,31.32
2018-09-28T12:52:13.940Z,31.01
2018-09-28T12:54:42.438Z,32.51
2018-09-28T12:57:10.859Z,32.94
2018-09-28T12:59:39.336Z,33.32
2018-09-28T13:02:07.947Z,34.40
2018-09-28T13:04:36.354Z,33.39
2018-09-28T13:07:04.815Z,32.40
2018-09-28T13:09:33.339Z,31.52
2018-09-28T13:12:01.979Z,34.21
2018-09-28T13:14:30.503Z,34.27
2018-09-28T13:16:58.959Z,34.17
2018-09-28T13:19:27.529Z,34.55
2018-09-28T13:21:56.003Z,34.63
2018-09-28T13:24:24.877Z,33.39
2018-09-28T13:26:53.294Z,34.04
2018-09-28T13:29:22.366Z,39.09
2018-09-28T13:31:51.060Z,40.82
2018-09-28T13:34:19.640Z,41.28
2018-09-28T13:36:48.203Z,43.51
2018-09-28T13:39:16.649Z,43.75
2018-09-28T13:41:45.069Z,44.19
2018-09-28T13:44:13.657Z,44.42
2018-09-28T13:46:42.129Z,45.45
2018-09-28T13:49:10.555Z,47.64
2018-09-28T13:51:39.177Z,46.93
2018-09-28T13:54:08.775Z,47.52
2018-09-28T13:56:37.382Z,50.06
2018-09-28T13:59:05.923Z,51.19
2018-09-28T14:01:35.668Z,52.34
2018-09-28T14:04:04.187Z,53.13
2018-09-28T14:06:32.698Z,54.28
2018-09-28T14:09:01.130Z,54.40
2018-09-28T14:11:34.709Z,57.26
2018-09-28T14:14:03.310Z,58.62
2018-09-28T14:16:31.782Z,60.56
2018-09-28T14:19:01.125Z,61.62
2018-09-28T14:21:29.705Z,62.78
2018-09-28T14:23:58.171Z,63.91
2018-09-28T14:26:26.826Z,64.04
2018-09-28T14:29:05.325Z,65.15
2018-09-28T14:31:33.763Z,66.05
2018-09-28T14:34:02.367Z,66.53
2018-09-28T14:36:30.918Z,68.23
2018-09-28T14:38:59.376Z,68.28
2018-09-28T14:41:28.179Z,67.95
2018-09-28T14:43:56.707Z,68.15
2018-09-28T14:46:25.201Z,68.75
2018-09-28T14:48:53.749Z,69.64
2018-09-28T14:51:22.119Z,70.06
2018-09-28T14:53:50.635Z,70.00
2018-09-28T14:56:19.302Z,71.46
2018-09-28T14:58:47.826Z,70.07
2018-09-28T15:01:16.436Z,71.33
2018-09-28T15:03:44.763Z,71.33
2018-09-28T15:06:13.223Z,71.06
2018-09-28T15:08:41.797Z,71.42
2018-09-28T15:11:10.431Z,71.39
2018-09-28T15:13:38.967Z,70.96
2018-09-28T15:16:07.580Z,71.12
2018-09-28T15:18:36.214Z,73.06
2018-09-28T15:21:04.795Z,73.61
2018-09-28T15:23:33.264Z,73.76
2018-09-28T15:26:01.834Z,74.93
2018-09-28T15:28:30.304Z,75.36
2018-09-28T15:30:58.815Z,74.86
2018-09-28T15:33:27.308Z,74.78
2018-09-28T15:35:55.971Z,75.74
2018-09-28T15:38:24.517Z,76.37
2018-09-28T15:40:53.748Z,76.40
2018-09-28T15:43:23.447Z,76.97
2018-09-28T15:45:51.920Z,77.42
2018-09-28T15:48:20.474Z,77.95
2018-09-28T15:50:48.971Z,78.85
2018-09-28T15:53:17.674Z,78.83
2018-09-28T15:55:46.230Z,79.19
2018-09-28T15:58:14.690Z,79.45
2018-09-28T16:00:43.202Z,79.21
2018-09-28T16:03:11.805Z,79.58
2018-09-28T16:05:40.391Z,80.97
2018-09-28T16:08:08.988Z,80.65
2018-09-28T16:10:37.599Z,81.13
2018-09-28T16:13:06.159Z,80.95
2018-09-28T16:15:34.891Z,80.74
2018-09-28T16:18:04.547Z,81.15
2018-09-28T16:20:34.527Z,81.12
2018-09-28T16:23:02.955Z,80.92
2018-09-28T16:25:31.666Z,79.99
2018-09-28T16:28:00.654Z,79.73
2018-09-28T16:30:29.149Z,79.17
2018-09-28T16:32:57.802Z,78.73
2018-09-28T16:35:26.248Z,78.10
2018-09-28T16:37:55.719Z,77.78
2018-09-28T16:40:24.577Z,78.34
2018-09-28T16:42:53.303Z,77.33
2018-09-28T16:45:22.875Z,76.92
2018-09-28T16:47:51.393Z,76.67
2018-09-28T16:50:19.909Z,76.32
2018-09-28T16:52:48.423Z,76.33
2018-09-28T16:55:17.889Z,76.39
2018-09-28T16:57:46.533Z,75.14
2018-09-28T17:00:14.997Z,74.36
2018-09-28T17:02:43.601Z,74.34
2018-09-28T17:05:13.004Z,74.56
2018-09-28T17:07:43.097Z,74.52
2018-09-28T17:10:12.061Z,73.32
2018-09-28T17:12:40.829Z,72.71
2018-09-28T17:15:09.746Z,72.75
2018-09-28T17:17:38.299Z,73.10
2018-09-28T17:20:07.060Z,73.00
2018-09-28T17:22:35.763Z,73.58
2018-09-28T17:25:04.427Z,73.30
2018-09-28T17:27:33.021Z,73.35
2018-09-28T17:30:01.711Z,72.98
2018-09-28T17:32:30.209Z,72.53
2018-09-28T17:34:58.792Z,72.30
2018-09-28T17:37:27.249Z,72.15
2018-09-28T17:39:56.572Z,72.72
2018-09-28T17:42:25.411Z,72.64
2018-09-28T17:44:53.983Z,72.20
2018-09-28T17:47:22.477Z,72.09
2018-09-28T17:49:51.216Z,71.78
2018-09-28T17:52:20.851Z,72.25
2018-09-28T17:54:49.380Z,71.62
2018-09-28T17:57:18.066Z,72.32
2018-09-28T17:59:47.535Z,72.50
2018-09-28T18:02:16.059Z,71.00
2018-09-28T18:04:44.543Z,70.62
2018-09-28T18:07:13.223Z,71.67
2018-09-28T18:09:42.075Z,71.56
2018-09-28T18:12:10.663Z,71.84
2018-09-28T18:14:39.343Z,71.29
2018-09-28T18:17:07.984Z,71.83
2018-09-28T18:19:36.516Z,70.84
2018-09-28T18:22:05.541Z,71.23
2018-09-28T18:24:34.720Z,70.86
2018-09-28T18:27:03.343Z,71.05
2018-09-28T18:29:31.890Z,71.29
2018-09-28T18:32:00.478Z,70.96
2018-09-28T18:34:29.045Z,71.31
2018-09-28T18:36:58.169Z,71.61
2018-09-28T18:39:27.075Z,71.16
2018-09-28T18:41:55.972Z,71.29
2018-09-28T18:44:24.670Z,70.85
2018-09-28T18:46:53.182Z,70.92
2018-09-28T18:49:21.858Z,70.93
2018-09-28T18:51:50.487Z,70.32
2018-09-28T18:54:19.115Z,71.04
2018-09-28T18:56:47.655Z,71.12
2018-09-28T18:59:16.191Z,71.11
2018-09-28T19:01:44.932Z,70.27
2018-09-28T19:04:13.571Z,70.28
2018-09-28T19:06:42.384Z,70.54
2018-09-28T19:09:12.473Z,70.02
2018-09-28T19:11:42.409Z,70.78
2018-09-28T19:14:11.593Z,71.81
2018-09-28T19:16:40.167Z,71.83
2018-09-28T19:19:08.921Z,71.40
2018-09-28T19:21:39.142Z,71.77
2018-09-28T19:24:08.153Z,72.00
2018-09-28T19:26:36.771Z,70.51
2018-09-28T19:29:05.411Z,70.70
2018-09-28T19:31:34.121Z,69.81
2018-09-28T19:34:02.692Z,69.97
2018-09-28T19:36:31.411Z,71.73
2018-09-28T19:39:00.042Z,71.67
2018-09-28T19:41:29.550Z,70.02
2018-09-28T19:43:58.098Z,71.29
2018-09-28T19:46:26.650Z,70.94
2018-09-28T19:48:55.131Z,72.37
2018-09-28T19:51:23.758Z,72.66
2018-09-28T19:53:52.851Z,72.95
2018-09-28T19:56:22.381Z,71.24
2018-09-28T19:58:51.561Z,71.56
2018-09-28T20:01:20.684Z,72.23
2018-09-28T20:03:49.227Z,71.20
2018-09-28T20:06:18.040Z,71.87
2018-09-28T20:08:46.543Z,72.30
2018-09-28T20:11:15.070Z,73.45
2018-09-28T20:13:44.338Z,72.57
2018-09-28T20:16:13.096Z,73.09
2018-09-28T20:18:41.952Z,72.19
2018-09-28T20:21:10.619Z,71.93
2018-09-28T20:23:40.586Z,72.00
2018-09-28T20:26:09.590Z,72.86
2018-09-28T20:28:39.215Z,72.79
2018-09-28T20:31:08.290Z,73.46
2018-09-28T20:33:36.764Z,73.37
2018-09-28T20:36:05.405Z,73.88
2018-09-28T20:38:35.353Z,76.03
2018-09-28T20:41:03.847Z,75.74
2018-09-28T20:43:33.413Z,74.18
2018-09-28T20:46:01.891Z,74.01
2018-09-28T20:48:30.479Z,73.42
2018-09-28T20:50:59.219Z,75.24
2018-09-28T20:53:28.264Z,76.73
2018-09-28T20:55:56.910Z,77.30
2018-09-28T20:58:26.280Z,78.45
2018-09-28T21:00:54.814Z,78.35
2018-09-28T21:03:23.240Z,77.09
2018-09-28T21:05:52.958Z,77.65
2018-09-28T21:08:21.647Z,78.78
2018-09-28T21:10:50.749Z,77.93
2018-09-28T21:13:19.364Z,76.62
2018-09-28T21:15:47.907Z,76.23
2018-09-28T21:18:16.443Z,75.84
2018-09-28T21:20:45.047Z,74.36
2018-09-28T21:23:13.766Z,73.49
2018-09-28T21:25:42.399Z,73.07
2018-09-28T21:28:10.931Z,72.39
2018-09-28T21:30:39.887Z,72.84
2018-09-28T21:33:10.052Z,72.02
2018-09-28T21:35:38.704Z,72.13
2018-09-28T21:38:07.481Z,71.69
2018-09-28T21:40:35.962Z,71.61
2018-09-28T21:43:04.521Z,71.62
2018-09-28T21:45:33.662Z,71.30
2018-09-28T21:48:02.088Z,70.73
2018-09-28T21:50:30.603Z,70.90
2018-09-28T21:52:59.063Z,71.37
2018-09-28T21:55:27.688Z,70.62
2018-09-28T21:57:56.140Z,70.96
2018-09-28T22:00:24.931Z,70.55
2018-09-28T22:02:53.506Z,70.69
2018-09-28T22:05:22.040Z,71.06
2018-09-28T22:07:50.491Z,71.41
2018-09-28T22:10:19.199Z,71.40
2018-09-28T22:12:47.711Z,71.78
2018-09-28T22:15:16.131Z,71.33
2018-09-28T22:17:44.761Z,71.82
2018-09-28T22:20:13.222Z,72.45
2018-09-28T22:22:41.701Z,71.79
2018-09-28T22:25:10.516Z,71.20
2018-09-28T22:27:39.048Z,71.07
2018-09-28T22:30:07.627Z,71.39
2018-09-28T22:32:36.174Z,72.08
2018-09-28T22:35:04.857Z,71.67
2018-09-28T22:37:33.444Z,71.35
2018-09-28T22:40:01.923Z,72.20
2018-09-28T22:42:30.459Z,72.88
2018-09-28T22:44:58.991Z,71.83
2018-09-28T22:47:27.479Z,72.77
2018-09-28T22:49:56.024Z,71.82
2018-09-28T22:52:24.571Z,71.13
2018-09-28T22:54:53.053Z,71.85
2018-09-28T22:57:21.579Z,72.67
2018-09-28T22:59:50.035Z,72.99
2018-09-28T23:02:18.539Z,73.71
2018-09-28T23:04:47.066Z,73.59
2018-09-28T23:07:15.535Z,73.50
2018-09-28T23:09:44.042Z,73.02
2018-09-28T23:12:12.571Z,73.60
2018-09-28T23:14:40.998Z,73.50
2018-09-28T23:17:09.515Z,73.00
2018-09-28T23:19:38.159Z,72.55
2018-09-28T23:22:06.776Z,72.53
2018-09-28T23:24:35.312Z,72.69
2018-09-28T23:27:03.767Z,72.32
2018-09-28T23:29:32.322Z,72.01
2018-09-28T23:32:00.719Z,71.64
2018-09-28T23:34:29.180Z,72.25
2018-09-28T23:36:57.585Z,71.86
2018-09-28T23:39:26.054Z,72.22
2018-09-28T23:41:54.564Z,72.60
2018-09-28T23:44:23.002Z,72.37
2018-09-28T23:46:51.400Z,72.30
2018-09-28T23:49:19.900Z,72.55
2018-09-28T23:51:48.347Z,72.25
2018-09-28T23:54:16.815Z,72.36
2018-09-28T23:56:45.324Z,72.25
2018-09-28T23:59:13.798Z,71.79
